»·PEaware :: N401BE KMFR-KRDD

N401BE :: KMFR-KRDD

FLIGHT INFORMATION

Flight Status: Arrived
Operator: Privately registered:
United States
More flights under this callsign
Pilot: Joe M. (18884)
Aircraft: BEECH AIRCRAFT BARON
(BE58)
More flights by this aircraft type
Origin: KMFR Rogue Valley Intl-Medford
United States
Destination: KRDD Redding Mun
United States
More flights between these airports :: More routes between these airports
Route: JKSN1 OED V23 TAYTO
File this flight plan on PilotEdge
Remarks:
Altitude:
(Current/Filed)
11,000ft
Speed:
(Current/Filed)
220kts
Departed: 23-Oct-19 02:18 PM
Arrived: 23-Oct-19 03:07 PM
Distance/Time
Traveled:
115nm/0:49
Distance/Time
To Go:
Arrived

Flight Plot

Page will automatically refresh every two minutes.

Flight plan parsing failed; only flown route is shown


Map Options




Map Legend


Flown Route
Filed Route
Departure Airport
Arrival Airport
Navaid (VOR, NDB)
Fix

Horizontal Profiles

Position Reports

Time Latitude Longitude Heading Altitude Ground
Speed
23-Oct-19 14:01 42.371850 -122.878294 24 1310ft 0kts
23-Oct-19 14:02 42.371850 -122.878294 24 1310ft 0kts
23-Oct-19 14:03 42.371850 -122.878294 24 1310ft 0kts
23-Oct-19 14:04 42.371850 -122.878294 24 1310ft 0kts
23-Oct-19 14:05 42.371850 -122.878294 24 1310ft 0kts
23-Oct-19 14:06 42.371850 -122.878294 24 1310ft 0kts
23-Oct-19 14:07 42.371850 -122.878294 24 1310ft 0kts
23-Oct-19 14:08 42.371850 -122.878294 24 1310ft 0kts
23-Oct-19 14:09 42.371850 -122.878294 24 1310ft 0kts
23-Oct-19 14:10 42.372373 -122.877944 31 1310ft 2kts
23-Oct-19 14:11 42.372129 -122.875735 112 1311ft 16kts
23-Oct-19 14:12 42.376444 -122.875746 340 1307ft 15kts
23-Oct-19 14:13 42.382042 -122.878635 337 1302ft 19kts
23-Oct-19 14:14 42.385830 -122.880226 62 1296ft 0kts
23-Oct-19 14:15 42.385830 -122.880226 62 1296ft 0kts
23-Oct-19 14:16 42.386114 -122.879108 98 1298ft 8kts
23-Oct-19 14:17 42.371673 -122.871583 158 1481ft 130kts
23-Oct-19 14:18 42.342092 -122.881306 258 3074ft 128kts
23-Oct-19 14:19 42.362666 -122.912913 336 4596ft 122kts
23-Oct-19 14:20 42.392878 -122.930979 349 5996ft 115kts
23-Oct-19 14:21 42.423386 -122.927693 14 7142ft 109kts
23-Oct-19 14:22 42.453569 -122.918126 14 8146ft 117kts
23-Oct-19 14:23 42.485801 -122.913072 353 9173ft 120kts
23-Oct-19 14:24 42.516938 -122.929992 315 10091ft 129kts
23-Oct-19 14:25 42.503769 -122.969441 179 10840ft 139kts
23-Oct-19 14:26 42.472993 -122.938792 122 11004ft 156kts
23-Oct-19 14:27 42.435560 -122.902951 169 10998ft 181kts
23-Oct-19 14:28 42.384262 -122.900728 171 10996ft 184kts
23-Oct-19 14:29 42.332362 -122.897464 170 10998ft 190kts
23-Oct-19 14:30 42.278214 -122.891824 170 10997ft 197kts
23-Oct-19 14:31 42.223539 -122.886124 170 11023ft 197kts
23-Oct-19 14:32 42.168507 -122.880393 170 11024ft 198kts
23-Oct-19 14:33 42.113595 -122.874683 170 11024ft 198kts
23-Oct-19 14:34 42.058615 -122.868976 170 11021ft 198kts
23-Oct-19 14:35 42.003533 -122.863269 170 11011ft 199kts
23-Oct-19 14:36 41.948046 -122.857531 170 11002ft 200kts
23-Oct-19 14:37 41.897229 -122.852284 170 10996ft 200kts
23-Oct-19 14:38 41.841917 -122.846575 170 10995ft 200kts
23-Oct-19 14:39 41.786471 -122.840867 170 10995ft 200kts
23-Oct-19 14:40 41.731135 -122.835183 170 10995ft 200kts
23-Oct-19 14:41 41.675714 -122.829499 170 10995ft 200kts
23-Oct-19 14:42 41.620107 -122.823843 170 10995ft 200kts
23-Oct-19 14:43 41.564539 -122.818132 170 10995ft 200kts
23-Oct-19 14:44 41.508963 -122.812348 170 10995ft 200kts
23-Oct-19 14:45 41.455173 -122.806647 163 11251ft 193kts
23-Oct-19 14:46 41.403422 -122.786327 156 11252ft 195kts
23-Oct-19 14:47 41.351622 -122.764187 156 11252ft 195kts
23-Oct-19 14:48 41.299727 -122.741910 156 11252ft 195kts
23-Oct-19 14:49 41.247970 -122.719717 156 11252ft 195kts
23-Oct-19 14:50 41.196169 -122.697541 156 11252ft 195kts
23-Oct-19 14:51 41.144410 -122.675418 156 11252ft 196kts
23-Oct-19 14:52 41.092305 -122.653176 156 11223ft 197kts
23-Oct-19 14:53 41.039859 -122.630802 156 11145ft 199kts
23-Oct-19 14:54 40.987148 -122.608388 157 11067ft 200kts
23-Oct-19 14:55 40.934213 -122.585933 157 11023ft 199kts
23-Oct-19 14:56 40.882521 -122.564040 157 11021ft 197kts
23-Oct-19 14:57 40.828813 -122.541318 157 10842ft 203kts
23-Oct-19 14:58 40.774323 -122.518289 157 10579ft 211kts
23-Oct-19 14:59 40.717690 -122.494462 157 9639ft 212kts
23-Oct-19 15:00 40.668450 -122.457942 140 7678ft 208kts
23-Oct-19 15:01 40.617775 -122.423347 151 5576ft 207kts
23-Oct-19 15:02 40.564845 -122.394144 149 4265ft 207kts
23-Oct-19 15:03 40.514147 -122.359756 142 2697ft 208kts
23-Oct-19 15:04 40.477114 -122.324375 81 1165ft 117kts
23-Oct-19 15:05 40.487912 -122.295793 13 810ft 84kts
23-Oct-19 15:06 40.507406 -122.294849 351 494ft 23kts
23-Oct-19 15:07 40.508322 -122.295974 299 496ft 0kts
23-Oct-19 15:08 40.508223 -122.298625 9 496ft 11kts
23-Oct-19 15:09 40.508695 -122.297765 359 496ft 0kts
23-Oct-19 15:10 40.508695 -122.297765 359 496ft 0kts
23-Oct-19 15:11 40.508695 -122.297765 359 496ft 0kts
23-Oct-19 15:12 40.508695 -122.297765 359 496ft 0kts
23-Oct-19 15:13 40.508695 -122.297765 359 496ft 0kts

Navigation Log

Ident Type
Flight plan parsing failed, navigation log unavailable